Portada
METAR-TAF:

METAR-TAF

Aeropuertos :

Aurillac, Francia

latitud: 44-53N, longitud: 002-25E, altitud: 639 m

Observación

El informe se hizo hace 37 minutos, a las 12:30 UTC
Viento 11 kt del noroeste
Temperatura 7°C
Humedad 81%
Presión 1029 hPa
Visibilidad 10 km o más
Cielo nuboso a una altura de 1900 ft
Cielo cubierto a una altura de 4000 ft

METAR: LFLW 101230Z AUTO 31011KT 9999 BKN019 OVC040 07/04 Q1029 TEMPO SHRA

Hora: 14:07 (13:07 UTC)

Pronóstico

El informe se hizo hace 2 horas y 7 minutos, a las 11:00 UTC
Pronóstico válido del 10 a las 12 UTC al 10 a las 21 UTC
Viento 11 kt del norte-noroeste
Visibilidad 10 km o más
Cielo nuboso a una altura de 2000 ft
Cielo cubierto a una altura de 3000 ft
Probabilidad 40% :
Temporalmente
del 10 a las 12 UTC al 10 a las 18 UTC
chaparrones de lluvia

TAF: LFLW 101100Z 1012/1021 33011KT 9999 BKN020 OVC030 PROB40 TEMPO 1012/1018 SHRA

Observaciones y pronósticos meteorológicos de más de 4000 aeropuertos (mensajes METAR y TAF).

Los puntos amarillos y rojos representan las estaciones disponibles.

Ponga el ratón en el punto deseado para ver el nombre de la estación.

Haga clic para ver las observaciones y los pronósticos meteorológicos.

Para cambiar el mapa : haga clic en los botones verdes con una cruz de color negro para hacer un zoom, en el botón verde con un guión para alejar o en las flechas verdes para mapas adyacentes.


METAR-TAF: